CheckWX is a tool to help pilots better visualize weather data.  It is not intended as a substitute for an official pre-flight weather briefing.

00:47:14 UTC

O32 METAR
Reedley Municipal Airport
Reedley, California, USA
Current

37 mins ago

KO32 250010Z AUTO 00000KT 10SM FEW047 18/08 A3025 RMK AO2
Observed
Feb-25 @ 00:10 UTC
Visibility
10 SM
Flight Rules
VFR
Cloud Levels
  • Few at 4,700' AGL
Temperature
18°C / 64°F
Dewpoint
C / 46°F
Humidity
52%
Altimeter
30.25" Hg
Pressure
1024.42 hPa
Previous

57 mins ago

KO32 242350Z AUTO 00000KT 10SM FEW047 19/08 A3025 RMK AO2
Observed
Feb-24 @ 23:50 UTC
Visibility
10 SM
Flight Rules
VFR
Cloud Levels
  • Few at 4,700' AGL
Temperature
19°C / 66°F
Dewpoint
C / 46°F
Humidity
49%
Altimeter
30.25" Hg
Pressure
1024.42 hPa
Previous

1 hour ago

KO32 242330Z AUTO 00000KT 10SM FEW045 19/08 A3025 RMK AO2
Observed
Feb-24 @ 23:30 UTC
Visibility
10 SM
Flight Rules
VFR
Cloud Levels
  • Few at 4,500' AGL
Temperature
19°C / 66°F
Dewpoint
C / 46°F
Humidity
49%
Altimeter
30.25" Hg
Pressure
1024.42 hPa